Terminal Aerodrome Forecast
Issued by NWS Binghamton, NY

Home | Current Version | Previous Version | Text Only | Print | Product List | Glossary On
Versions: 1 2 3 4 5 6 7 8 9 10 11 12 13 14 15 16
529
FTUS41 KBGM 181738 AAA
TAFSYR
TAF AMD
KSYR 181738Z 1818/1918 23010KT P6SM SCT050
      TEMPO 1819/1823 -SHRA OVC030
     FM190100 26005KT P6SM SCT100
      TEMPO 1908/1912 5SM BR BKN020
     FM191500 27010KT P6SM BKN050=

USA.gov is the U.S. government's official web portal to all federal, state and local government web resources and services.